Time;durP1;ratioP1;P1;durP2;ratioP2;P2;SDS_P1;SDS_P2;PMS_P1;PMS_P2;Temp;Humidity;BMP_temperature;BMP_pressure;BME280_temperature;BME280_humidity;BME280_pressure;Samples;Min_cycle;Max_cycle;Signal;HPM_P1;HPM_P2
2023/12/09 00:01:50;;;;;;;0.60;0.60;;;;;;;8.97;100.00;99969.72;5025907;28;20720;-63
2023/12/09 00:04:15;;;;;;;0.70;0.70;;;;;;;8.94;100.00;99980.41;5026761;28;20029;-64
2023/12/09 00:06:48;;;;;;;0.80;0.80;;;;;;;8.94;100.00;99976.00;5028874;28;20120;-63
2023/12/09 00:09:14;;;;;;;0.70;0.70;;;;;;;8.95;100.00;99976.84;5031058;28;20026;-63
2023/12/09 00:11:39;;;;;;;0.70;0.70;;;;;;;8.97;100.00;99978.56;5027298;28;20390;-63
2023/12/09 00:14:05;;;;;;;0.70;0.70;;;;;;;8.99;100.00;99983.81;5014496;28;20085;-63
2023/12/09 00:16:30;;;;;;;0.80;0.80;;;;;;;9.02;100.00;99986.38;5027741;28;20909;-63
2023/12/09 00:18:57;;;;;;;0.80;0.80;;;;;;;9.02;100.00;99981.06;5009557;28;20033;-63
2023/12/09 00:21:23;;;;;;;0.80;0.80;;;;;;;9.05;100.00;99986.28;5009356;28;20067;-64
2023/12/09 00:23:48;;;;;;;0.80;0.80;;;;;;;9.02;100.00;99973.13;5028100;28;20084;-63
2023/12/09 00:26:14;;;;;;;0.75;0.75;;;;;;;9.10;100.00;99987.03;5030802;28;20107;-63
2023/12/09 00:28:39;;;;;;;0.75;0.75;;;;;;;9.11;100.00;99994.06;5041256;28;20103;-64
2023/12/09 00:31:05;;;;;;;0.80;0.80;;;;;;;9.08;100.00;99992.38;5027434;28;20030;-63
2023/12/09 00:33:30;;;;;;;0.80;0.80;;;;;;;9.12;100.00;99995.84;5045127;28;20531;-63
2023/12/09 00:35:56;;;;;;;0.80;0.80;;;;;;;9.10;100.00;99997.66;5041976;28;20053;-63
2023/12/09 00:38:21;;;;;;;0.80;0.80;;;;;;;9.10;100.00;99997.66;5044598;28;20017;-64
2023/12/09 00:40:46;;;;;;;0.80;0.80;;;;;;;9.09;100.00;99990.63;5043574;28;20092;-63
2023/12/09 00:43:12;;;;;;;0.88;0.88;;;;;;;9.13;100.00;100008.19;5044735;28;20078;-63
2023/12/09 00:45:37;;;;;;;0.80;0.80;;;;;;;9.12;100.00;99998.50;5039014;28;20041;-63
2023/12/09 00:48:03;;;;;;;0.80;0.80;;;;;;;9.12;100.00;100009.09;5043376;28;20033;-63
2023/12/09 00:50:28;;;;;;;0.60;0.60;;;;;;;9.14;100.00;100009.94;5035937;28;20029;-63
2023/12/09 00:52:53;;;;;;;0.73;0.73;;;;;;;9.13;100.00;100014.38;5022486;28;20065;-63
2023/12/09 00:55:19;;;;;;;0.70;0.70;;;;;;;9.13;100.00;100018.78;5025206;28;20100;-63
2023/12/09 00:57:44;;;;;;;0.70;0.70;;;;;;;9.12;100.00;100020.59;5025183;28;20378;-63
2023/12/09 01:00:10;;;;;;;0.70;0.70;;;;;;;9.13;100.00;100024.97;5025007;28;20034;-63
2023/12/09 01:02:38;;;;;;;0.70;0.70;;;;;;;9.15;100.00;100020.50;5040218;28;20040;-63
2023/12/09 01:05:04;;;;;;;0.70;0.70;;;;;;;9.16;100.00;100024.88;5031791;28;20041;-63
2023/12/09 01:07:30;;;;;;;0.70;0.70;;;;;;;9.16;100.00;100039.94;5026100;28;20026;-63
2023/12/09 01:09:55;;;;;;;0.70;0.70;;;;;;;9.16;100.00;100045.25;5028938;28;20042;-63
2023/12/09 01:12:21;;;;;;;0.80;0.80;;;;;;;9.13;100.00;100051.50;5034662;28;20097;-63
2023/12/09 01:14:46;;;;;;;0.70;0.70;;;;;;;9.10;100.00;100037.44;5042336;28;20090;-64
2023/12/09 01:17:12;;;;;;;0.60;0.60;;;;;;;9.15;100.00;100048.81;5026083;28;20091;-62
2023/12/09 01:19:37;;;;;;;0.80;0.80;;;;;;;9.14;100.00;100039.13;5020465;28;20079;-62
2023/12/09 01:22:03;;;;;;;0.80;0.80;;;;;;;9.11;100.00;100036.53;5030090;28;20444;-63
2023/12/09 01:24:28;;;;;;;0.70;0.70;;;;;;;9.14;100.00;100039.13;5030437;28;20040;-62
2023/12/09 01:26:53;;;;;;;0.70;0.70;;;;;;;9.11;100.00;100045.38;5026821;28;20033;-63
2023/12/09 01:29:19;;;;;;;0.70;0.70;;;;;;;9.14;100.00;100047.09;5026091;28;20018;-63
2023/12/09 01:31:44;;;;;;;0.70;0.70;;;;;;;9.10;100.00;100029.50;5026705;28;20037;-63
2023/12/09 01:34:10;;;;;;;0.70;0.70;;;;;;;9.13;100.00;100037.38;5024096;28;20056;-63
2023/12/09 01:36:35;;;;;;;0.80;0.80;;;;;;;9.11;100.00;100044.50;5022337;28;20017;-63
2023/12/09 01:39:00;;;;;;;0.80;0.80;;;;;;;9.10;100.00;100045.41;5014037;28;20033;-63
2023/12/09 01:41:28;;;;;;;0.88;0.88;;;;;;;9.06;100.00;100049.91;5024283;28;20087;-63
2023/12/09 01:43:53;;;;;;;0.80;0.80;;;;;;;9.07;100.00;100053.47;5003592;28;20490;-63
2023/12/09 01:46:20;;;;;;;0.80;0.80;;;;;;;9.11;100.00;100055.09;5024713;28;20037;-63
2023/12/09 01:48:45;;;;;;;0.70;0.70;;;;;;;9.10;100.00;100043.63;5024423;28;20061;-63
2023/12/09 01:51:12;;;;;;;0.80;0.80;;;;;;;9.04;100.00;100045.59;5014701;28;20479;-63
2023/12/09 01:53:38;;;;;;;0.75;0.75;;;;;;;9.03;100.00;100044.69;5028958;28;20025;-63
2023/12/09 01:56:08;;;;;;;0.80;0.80;;;;;;;9.00;100.00;100043.91;5029089;28;20385;-63
2023/12/09 01:58:36;;;;;;;0.95;0.95;;;;;;;8.97;100.00;100034.25;5022591;28;20049;-63
2023/12/09 02:01:02;;;;;;;0.80;0.80;;;;;;;8.99;100.00;100035.09;5012064;28;20025;-63
2023/12/09 02:03:31;;;;;;;0.80;0.80;;;;;;;9.00;100.00;100036.81;5022563;28;20108;-63
2023/12/09 02:05:57;;;;;;;0.80;0.80;;;;;;;9.00;100.00;100030.63;5026867;28;20389;-63
2023/12/09 02:08:24;;;;;;;0.70;0.70;;;;;;;9.01;100.00;100035.06;5029422;28;20029;-63
2023/12/09 02:11:31;;;;;;;0.80;0.80;;;;;;;9.03;100.00;100030.56;5028260;28;20038;-63
2023/12/09 02:14:07;;;;;;;0.80;0.80;;;;;;;9.06;100.00;100033.16;5018223;28;20508;-63
2023/12/09 02:16:52;;;;;;;0.70;0.70;;;;;;;9.10;100.00;100029.50;5008491;28;20080;-63
2023/12/09 02:19:18;;;;;;;0.80;0.80;;;;;;;9.07;100.00;100019.84;5010650;28;20068;-63
2023/12/09 02:21:59;;;;;;;0.80;0.80;;;;;;;9.09;100.00;100014.50;5010621;28;20033;-63
2023/12/09 02:24:25;;;;;;;0.60;0.60;;;;;;;9.06;100.00;100011.94;5025057;28;20507;-63
2023/12/09 02:26:51;;;;;;;0.80;0.80;;;;;;;9.05;100.00;100011.06;5026931;28;20056;-63
2023/12/09 02:29:18;;;;;;;0.77;0.77;;;;;;;9.05;100.00;100003.09;5013972;28;20058;-63
2023/12/09 02:31:46;;;;;;;0.68;0.68;;;;;;;9.05;100.00;100005.75;5014653;28;20029;-63
2023/12/09 02:34:13;;;;;;;0.70;0.70;;;;;;;9.08;100.00;99992.38;5022437;28;20075;-63
2023/12/09 02:36:45;;;;;;;0.70;0.70;;;;;;;9.07;100.00;99973.88;5038087;28;20052;-63
2023/12/09 02:39:14;;;;;;;0.70;0.70;;;;;;;9.06;100.00;99972.97;5023490;28;20030;-64
2023/12/09 02:41:40;;;;;;;0.73;0.73;;;;;;;9.04;100.00;99972.16;5019554;28;20030;-64
2023/12/09 02:44:07;;;;;;;0.70;0.70;;;;;;;9.05;100.00;99976.56;5018718;28;20026;-63
2023/12/09 02:46:32;;;;;;;0.63;0.63;;;;;;;9.04;100.00;99966.84;5032590;28;20089;-63
2023/12/09 02:49:01;;;;;;;0.80;0.80;;;;;;;9.03;100.00;99957.16;5038318;28;20044;-63
2023/12/09 02:51:26;;;;;;;0.70;0.70;;;;;;;9.06;100.00;99956.22;5020166;28;20026;-63
2023/12/09 02:53:52;;;;;;;0.77;0.77;;;;;;;9.07;100.00;99963.25;5017183;28;20037;-64
2023/12/09 02:56:17;;;;;;;0.80;0.80;;;;;;;9.11;100.00;99962.22;5021701;28;20026;-64
2023/12/09 02:58:42;;;;;;;0.70;0.70;;;;;;;9.10;100.00;99966.69;5020455;28;20058;-63
2023/12/09 03:01:08;;;;;;;0.77;0.77;;;;;;;9.09;100.00;99967.59;5024084;28;20047;-64
2023/12/09 03:03:33;;;;;;;0.80;0.80;;;;;;;9.09;100.00;99964.94;5037765;28;20049;-64
2023/12/09 03:05:59;;;;;;;0.70;0.70;;;;;;;9.12;100.00;99966.66;5039269;28;20571;-63
2023/12/09 03:08:24;;;;;;;0.70;0.70;;;;;;;9.11;100.00;99963.13;5038554;28;20017;-63
2023/12/09 03:10:49;;;;;;;0.80;0.80;;;;;;;9.12;100.00;99953.38;5036069;28;20088;-64
2023/12/09 03:13:15;;;;;;;0.70;0.70;;;;;;;9.12;100.00;99946.31;5040201;28;20060;-64
2023/12/09 03:15:40;;;;;;;0.60;0.60;;;;;;;9.13;100.00;99944.50;5023795;28;20057;-63
2023/12/09 03:18:06;;;;;;;0.70;0.70;;;;;;;9.13;100.00;99949.81;5032974;28;20108;-64
2023/12/09 03:20:31;;;;;;;0.75;0.75;;;;;;;8.95;100.00;99923.78;5041322;28;20033;-63
2023/12/09 03:22:56;;;;;;;0.80;0.80;;;;;;;9.11;100.00;99947.19;5038502;28;20025;-64
2023/12/09 03:25:22;;;;;;;0.80;0.80;;;;;;;9.12;100.00;99951.59;5042520;28;20033;-64
2023/12/09 03:27:47;;;;;;;0.70;0.70;;;;;;;9.12;100.00;99945.44;5039164;28;20125;-64
2023/12/09 03:30:13;;;;;;;0.70;0.70;;;;;;;9.12;100.00;99950.72;5038676;28;20029;-64
2023/12/09 03:32:39;;;;;;;0.70;0.70;;;;;;;9.14;100.00;99956.88;5029682;28;20432;-64
2023/12/09 03:35:05;;;;;;;0.80;0.80;;;;;;;9.15;100.00;99948.88;5037730;28;20046;-63
2023/12/09 03:37:30;;;;;;;0.70;0.70;;;;;;;9.17;100.00;99939.09;5037650;28;20037;-63
2023/12/09 03:39:56;;;;;;;0.80;0.80;;;;;;;9.12;100.00;99942.78;5036223;28;20025;-64
2023/12/09 03:42:21;;;;;;;0.70;0.70;;;;;;;9.14;100.00;99946.25;5043088;28;20116;-64
2023/12/09 03:44:47;;;;;;;0.70;0.70;;;;;;;9.11;100.00;99936.59;5036602;28;20029;-65
2023/12/09 03:47:12;;;;;;;0.80;0.80;;;;;;;9.10;100.00;99944.59;5022959;28;20028;-64
2023/12/09 03:49:37;;;;;;;0.80;0.80;;;;;;;9.10;100.00;99949.91;5038806;28;20652;-64
2023/12/09 03:52:03;;;;;;;0.80;0.80;;;;;;;9.09;100.00;99949.00;5040193;28;20040;-64
2023/12/09 03:54:28;;;;;;;0.80;0.80;;;;;;;9.07;100.00;99950.88;5040059;28;20021;-64
2023/12/09 03:56:54;;;;;;;0.80;0.80;;;;;;;9.07;100.00;99956.16;5041077;28;20029;-63
2023/12/09 03:59:19;;;;;;;0.82;0.82;;;;;;;9.04;100.00;99958.88;5034535;28;20064;-64
2023/12/09 04:01:48;;;;;;;0.68;0.68;;;;;;;9.04;100.00;99952.72;5029773;28;20017;-63
2023/12/09 04:04:15;;;;;;;0.70;0.70;;;;;;;9.07;100.00;99963.25;5038635;28;20029;-64
2023/12/09 04:06:41;;;;;;;0.80;0.80;;;;;;;9.06;100.00;99961.53;5022098;28;20040;-64
2023/12/09 04:09:06;;;;;;;0.70;0.70;;;;;;;9.06;100.00;99969.47;5021410;28;20469;-64
2023/12/09 04:11:32;;;;;;;0.80;0.80;;;;;;;9.07;100.00;99972.09;5005343;28;20109;-63
2023/12/09 04:13:57;;;;;;;0.70;0.70;;;;;;;9.05;100.00;99962.41;5020058;28;20025;-63
2023/12/09 04:16:23;;;;;;;0.65;0.65;;;;;;;9.08;100.00;99963.19;5035329;28;20527;-64
2023/12/09 04:18:48;;;;;;;0.77;0.77;;;;;;;9.06;100.00;99962.38;5024373;28;20103;-63
2023/12/09 04:21:13;;;;;;;0.70;0.70;;;;;;;9.04;100.00;99950.91;5021700;28;20052;-64
2023/12/09 04:23:39;;;;;;;1.00;1.00;;;;;;;9.04;100.00;99958.88;5026452;28;20033;-63
2023/12/09 04:26:04;;;;;;;0.80;0.80;;;;;;;9.05;100.00;99965.06;5019602;28;20029;-64
2023/12/09 04:28:30;;;;;;;0.80;0.80;;;;;;;9.07;100.00;99960.59;5021917;28;20026;-65
2023/12/09 04:30:55;;;;;;;0.80;0.80;;;;;;;9.04;100.00;99950.06;5039747;28;20623;-64
2023/12/09 04:33:21;;;;;;;0.70;0.70;;;;;;;9.06;100.00;99953.56;5039909;28;20025;-64
2023/12/09 04:35:47;;;;;;;0.80;0.80;;;;;;;9.07;100.00;99955.28;5040696;28;20136;-64
2023/12/09 04:38:12;;;;;;;0.80;0.80;;;;;;;9.09;100.00;99964.09;5036685;28;20099;-63
2023/12/09 04:40:38;;;;;;;0.77;0.77;;;;;;;9.08;100.00;99957.03;5020913;28;20026;-64
2023/12/09 04:43:04;;;;;;;0.80;0.80;;;;;;;9.11;100.00;99959.59;5020864;28;20046;-63
2023/12/09 04:45:29;;;;;;;0.80;0.80;;;;;;;9.13;100.00;99960.41;5037590;28;20029;-64
2023/12/09 04:47:54;;;;;;;0.70;0.70;;;;;;;9.14;100.00;99970.13;5040926;28;20025;-63
2023/12/09 04:50:20;;;;;;;0.70;0.70;;;;;;;9.16;100.00;99973.59;5041140;28;20064;-64
2023/12/09 04:52:46;;;;;;;0.70;0.70;;;;;;;9.14;100.00;99968.34;5040350;28;20591;-64
2023/12/09 04:55:12;;;;;;;0.60;0.60;;;;;;;9.14;100.00;99968.34;5020929;28;20026;-64
2023/12/09 04:57:37;;;;;;;0.80;0.80;;;;;;;9.17;100.00;99959.44;5019123;28;20374;-64
2023/12/09 05:00:05;;;;;;;0.80;0.80;;;;;;;9.20;100.00;99956.69;5020690;28;20026;-63
2023/12/09 05:02:31;;;;;;;0.73;0.73;;;;;;;9.18;100.00;99961.16;5036134;28;20650;-65
2023/12/09 05:04:56;;;;;;;0.80;0.80;;;;;;;9.16;100.00;99955.03;5031707;28;20029;-63
2023/12/09 05:07:25;;;;;;;0.70;0.70;;;;;;;9.13;100.00;99949.81;5030623;28;20032;-63
2023/12/09 05:09:52;;;;;;;0.90;0.90;;;;;;;9.13;100.00;99949.81;5027008;28;20683;-63
2023/12/09 05:12:17;;;;;;;0.80;0.80;;;;;;;9.15;100.00;99943.56;4992879;28;20034;-63
2023/12/09 05:14:42;;;;;;;0.80;0.80;;;;;;;9.17;100.00;99938.22;4992342;28;20087;-63
2023/12/09 05:17:08;;;;;;;0.80;0.80;;;;;;;9.19;100.00;99933.72;5019622;28;20560;-63
2023/12/09 05:19:33;;;;;;;0.70;0.70;;;;;;;9.18;100.00;99931.97;5024227;28;20030;-62
2023/12/09 05:21:59;;;;;;;0.80;0.80;;;;;;;9.18;100.00;99929.31;5028379;28;20040;-63
2023/12/09 05:24:25;;;;;;;0.80;0.80;;;;;;;9.17;100.00;99935.56;5025401;28;20160;-63
2023/12/09 05:26:51;;;;;;;0.80;0.80;;;;;;;9.20;100.00;99940.78;5009998;28;20032;-63
2023/12/09 05:29:16;;;;;;;0.80;0.80;;;;;;;9.22;100.00;99925.69;5008642;28;20034;-63
2023/12/09 05:31:41;;;;;;;0.70;0.70;;;;;;;9.21;100.00;99921.25;5018616;28;20027;-63
2023/12/09 05:34:08;;;;;;;0.80;0.80;;;;;;;9.23;100.00;99922.09;5029293;28;20071;-63
2023/12/09 05:36:33;;;;;;;0.90;0.90;;;;;;;9.21;100.00;99915.97;5027658;28;20092;-63
2023/12/09 05:38:59;;;;;;;0.80;0.80;;;;;;;9.22;100.00;99907.09;5014273;28;20026;-63
2023/12/09 05:41:25;;;;;;;0.60;0.60;;;;;;;9.19;100.00;99907.19;5029008;28;20029;-63
2023/12/09 05:43:50;;;;;;;0.80;0.80;;;;;;;9.20;100.00;99898.31;5017049;28;20113;-63
2023/12/09 05:46:19;;;;;;;0.90;0.90;;;;;;;9.21;100.00;99894.72;5026496;28;20056;-63
2023/12/09 05:48:45;;;;;;;0.75;0.75;;;;;;;9.24;100.00;99894.66;5024790;28;20031;-63
2023/12/09 05:51:11;;;;;;;0.75;0.75;;;;;;;9.27;100.00;99889.25;5009320;28;20486;-63
2023/12/09 05:53:36;;;;;;;0.77;0.77;;;;;;;9.25;100.00;99889.31;5009081;28;20084;-63
2023/12/09 05:56:01;;;;;;;0.75;0.75;;;;;;;9.07;100.00;99860.66;5026238;28;20055;-63
2023/12/09 05:58:27;;;;;;;0.80;0.80;;;;;;;9.27;100.00;99889.25;5029121;28;20053;-63
2023/12/09 06:00:52;;;;;;;0.80;0.80;;;;;;;9.27;100.00;99886.59;5025440;28;20029;-62
2023/12/09 06:03:18;;;;;;;0.70;0.70;;;;;;;9.24;100.00;99879.59;5025971;28;20044;-63
2023/12/09 06:05:43;;;;;;;0.70;0.70;;;;;;;9.28;100.00;99888.34;5028816;28;20033;-62
2023/12/09 06:08:08;;;;;;;0.77;0.77;;;;;;;9.25;100.00;99878.69;5027052;28;20811;-62
2023/12/09 06:10:34;;;;;;;0.63;0.63;;;;;;;9.30;100.00;99887.41;5011425;28;20081;-62
2023/12/09 06:12:59;;;;;;;0.80;0.80;;;;;;;9.33;100.00;99883.75;5008686;28;20120;-63
2023/12/09 06:15:25;;;;;;;0.80;0.80;;;;;;;9.36;100.00;99886.31;5023417;28;20657;-64
2023/12/09 06:17:50;;;;;;;0.80;0.80;;;;;;;9.36;100.00;99869.56;5020404;28;20098;-63
2023/12/09 06:20:15;;;;;;;0.80;0.80;;;;;;;9.37;100.00;99866.84;5020949;28;20106;-63
2023/12/09 06:22:41;;;;;;;0.77;0.77;;;;;;;9.29;100.00;99851.13;5025270;28;20030;-63
2023/12/09 06:25:07;;;;;;;0.80;0.80;;;;;;;9.37;100.00;99873.94;5020014;28;20751;-63
2023/12/09 06:27:35;;;;;;;0.80;0.80;;;;;;;9.39;100.00;99867.66;5021001;28;20026;-63
2023/12/09 06:30:00;;;;;;;0.80;0.80;;;;;;;9.40;100.00;99865.88;5029677;28;20033;-64
2023/12/09 06:32:26;;;;;;;0.80;0.80;;;;;;;9.43;100.00;99864.00;5037616;28;20057;-64
2023/12/09 06:34:51;;;;;;;0.73;0.73;;;;;;;9.41;100.00;99859.66;5024761;28;20049;-63
2023/12/09 06:37:16;;;;;;;0.80;0.80;;;;;;;9.38;100.00;99863.25;5038369;28;20040;-64
2023/12/09 06:39:42;;;;;;;0.80;0.80;;;;;;;9.35;100.00;99855.41;5026740;28;20481;-63
2023/12/09 06:42:07;;;;;;;0.75;0.75;;;;;;;9.32;100.00;99863.47;5026543;28;20025;-64
2023/12/09 06:44:33;;;;;;;0.80;0.80;;;;;;;9.25;100.00;99859.25;5046428;28;20029;-64
2023/12/09 06:46:58;;;;;;;0.80;0.80;;;;;;;9.30;100.00;99865.28;5031150;28;20045;-63
2023/12/09 06:49:23;;;;;;;0.70;0.70;;;;;;;9.28;100.00;99860.03;5041839;28;20029;-64
2023/12/09 06:51:49;;;;;;;0.80;0.80;;;;;;;9.29;100.00;99859.09;5040877;28;20029;-63
2023/12/09 06:54:15;;;;;;;0.80;0.80;;;;;;;9.29;100.00;99855.59;5024362;28;20030;-63
2023/12/09 06:56:41;;;;;;;0.70;0.70;;;;;;;9.28;100.00;99848.53;5024835;28;20030;-63
2023/12/09 06:59:06;;;;;;;0.70;0.70;;;;;;;9.27;100.00;99846.81;5023598;28;20029;-64
2023/12/09 07:01:31;;;;;;;0.80;0.80;;;;;;;9.27;100.00;99847.66;5030759;28;20030;-63
2023/12/09 07:03:57;;;;;;;0.80;0.80;;;;;;;9.27;100.00;99845.00;5042409;28;20029;-63
2023/12/09 07:06:24;;;;;;;0.80;0.80;;;;;;;9.26;100.00;99845.03;5043598;28;20040;-64
2023/12/09 07:08:50;;;;;;;0.80;0.80;;;;;;;9.24;100.00;99855.72;5043037;28;20046;-63
2023/12/09 07:11:17;;;;;;;0.70;0.70;;;;;;;9.19;100.00;99859.44;5039927;28;20079;-64
2023/12/09 07:13:43;;;;;;;0.77;0.77;;;;;;;9.10;100.00;99855.25;5042442;28;20029;-64
2023/12/09 07:16:09;;;;;;;0.80;0.80;;;;;;;9.09;100.00;99863.25;5017357;28;20113;-64
2023/12/09 07:18:35;;;;;;;0.80;0.80;;;;;;;9.04;100.00;99855.41;5020861;28;20030;-63
2023/12/09 07:21:01;;;;;;;0.80;0.80;;;;;;;9.02;100.00;99861.69;5020060;28;20469;-63
2023/12/09 07:23:26;;;;;;;0.80;0.80;;;;;;;8.94;100.00;99871.66;5024201;28;20029;-64
2023/12/09 07:25:52;;;;;;;0.73;0.73;;;;;;;8.87;100.00;99873.63;5029560;28;20044;-63
2023/12/09 07:28:17;;;;;;;0.80;0.80;;;;;;;8.83;100.00;99871.94;5023775;28;20030;-63
2023/12/09 07:30:43;;;;;;;0.80;0.80;;;;;;;8.82;100.00;99864.91;5010473;28;20029;-63
2023/12/09 07:33:08;;;;;;;0.70;0.70;;;;;;;8.81;100.00;99872.91;5031248;28;20029;-63
2023/12/09 07:35:34;;;;;;;0.85;0.85;;;;;;;8.79;100.00;99869.44;5031313;28;20539;-63
2023/12/09 07:37:59;;;;;;;0.80;0.80;;;;;;;8.77;100.00;99871.25;5009140;28;20034;-63
2023/12/09 07:40:24;;;;;;;0.80;0.80;;;;;;;8.77;100.00;99872.13;5031232;28;20050;-63
2023/12/09 07:42:50;;;;;;;0.80;0.80;;;;;;;8.76;100.00;99873.06;5009564;28;20030;-63
2023/12/09 07:45:15;;;;;;;0.73;0.73;;;;;;;8.76;100.00;99869.53;5029954;28;20028;-63
2023/12/09 07:47:40;;;;;;;0.80;0.80;;;;;;;8.76;100.00;99866.88;5029717;28;20338;-63
2023/12/09 07:50:06;;;;;;;0.80;0.80;;;;;;;8.77;100.00;99860.63;5017108;28;20117;-63
2023/12/09 07:52:31;;;;;;;0.80;0.80;;;;;;;8.78;100.00;99857.09;5010735;28;20394;-63
2023/12/09 07:54:57;;;;;;;0.70;0.70;;;;;;;8.83;100.00;99865.78;5014068;28;20037;-63
2023/12/09 07:57:22;;;;;;;0.70;0.70;;;;;;;8.88;100.00;99861.22;5030749;28;20025;-63
2023/12/09 07:59:48;;;;;;;0.70;0.70;;;;;;;8.94;100.00;99847.78;5030457;28;20525;-63
2023/12/09 08:02:13;;;;;;;0.70;0.70;;;;;;;8.97;100.00;99842.38;5027479;28;20029;-63
2023/12/09 08:04:39;;;;;;;0.80;0.80;;;;;;;9.09;100.00;99845.53;5029227;28;20028;-63
2023/12/09 08:07:04;;;;;;;0.80;0.80;;;;;;;9.17;100.00;99835.59;5026179;28;20029;-63
2023/12/09 08:09:30;;;;;;;0.80;0.80;;;;;;;9.16;100.00;99833.84;5029898;28;20025;-63
2023/12/09 08:11:55;;;;;;;0.70;0.70;;;;;;;9.25;100.00;99830.94;5029716;28;20107;-63
2023/12/09 08:14:21;;;;;;;0.80;0.80;;;;;;;9.31;100.00;99829.84;5024932;28;20041;-63
2023/12/09 08:16:46;;;;;;;0.73;0.73;;;;;;;9.37;100.00;99837.66;5019788;28;20140;-63
2023/12/09 08:19:13;;;;;;;0.70;0.70;;;;;;;9.48;100.00;99835.53;5013098;28;20441;-63
2023/12/09 08:21:38;;;;;;;0.80;0.80;;;;;;;9.52;100.00;99829.22;5010778;28;20041;-63
2023/12/09 08:24:04;;;;;;;0.70;0.70;;;;;;;9.58;100.00;99826.34;5010871;28;20489;-63
2023/12/09 08:26:30;;;;;;;0.70;0.70;;;;;;;9.62;100.00;99822.66;5013378;28;20026;-63
2023/12/09 08:28:55;;;;;;;0.70;0.70;;;;;;;9.72;100.00;99818.81;5010573;28;20041;-63
2023/12/09 08:31:21;;;;;;;0.80;0.80;;;;;;;9.82;100.00;99824.72;5022731;28;20136;-63
2023/12/09 08:33:46;;;;;;;0.80;0.80;;;;;;;10.01;100.00;99820.50;5030062;28;20049;-63
2023/12/09 08:36:12;;;;;;;0.80;0.80;;;;;;;10.20;100.00;99819.00;5030350;28;20032;-63
2023/12/09 08:38:37;;;;;;;0.70;0.70;;;;;;;10.27;100.00;99821.41;5030090;28;20025;-63
2023/12/09 08:41:03;;;;;;;0.82;0.82;;;;;;;10.38;100.00;99811.25;5018400;28;20040;-63
2023/12/09 08:43:28;;;;;;;0.75;0.75;;;;;;;10.59;100.00;99799.84;5011205;28;20025;-63
2023/12/09 08:45:54;;;;;;;0.70;0.70;;;;;;;10.84;100.00;99796.31;5012220;28;20473;-63
2023/12/09 08:48:19;;;;;;;0.70;0.70;;;;;;;10.88;100.00;99787.28;5029330;28;20018;-63
2023/12/09 08:50:44;;;;;;;0.80;0.80;;;;;;;10.69;100.00;99794.22;5014001;28;20378;-63
2023/12/09 08:53:10;;;;;;;0.70;0.70;;;;;;;10.51;100.00;99803.69;5009140;28;20030;-63
2023/12/09 08:55:35;;;;;;;0.80;0.80;;;;;;;10.43;100.00;99804.00;5010966;28;20040;-63
2023/12/09 08:58:01;;;;;;;0.60;0.60;;;;;;;10.29;100.00;99806.28;5008529;28;20037;-63
2023/12/09 09:00:27;;;;;;;0.70;0.70;;;;;;;10.27;100.00;99794.81;5009252;28;20804;-63
2023/12/09 09:02:55;;;;;;;0.80;0.80;;;;;;;10.20;100.00;99787.97;5026985;28;20033;-63
2023/12/09 09:05:22;;;;;;;0.80;0.80;;;;;;;10.22;100.00;99790.56;5028227;28;20634;-63
2023/12/09 09:07:47;;;;;;;0.73;0.73;;;;;;;10.20;100.00;99789.75;5027658;28;20049;-63
2023/12/09 09:10:15;;;;;;;0.80;0.80;;;;;;;10.20;100.00;99776.47;5023560;28;20072;-63
2023/12/09 09:12:40;;;;;;;0.70;0.70;;;;;;;10.22;100.00;99771.97;5022426;28;20072;-63
2023/12/09 09:15:07;;;;;;;0.80;0.80;;;;;;;10.21;100.00;99764.94;5029043;28;20465;-63
2023/12/09 09:17:34;;;;;;;0.73;0.73;;;;;;;10.15;100.00;99750.06;5029340;28;20025;-63
2023/12/09 09:20:00;;;;;;;0.73;0.73;;;;;;;10.21;100.00;99757.81;5020225;28;20417;-63
2023/12/09 09:22:25;;;;;;;0.80;0.80;;;;;;;10.19;100.00;99750.81;5014685;28;20029;-63
2023/12/09 09:24:51;;;;;;;0.70;0.70;;;;;;;10.22;100.00;99756.91;5029246;28;20036;-63
2023/12/09 09:27:17;;;;;;;0.70;0.70;;;;;;;10.25;100.00;99740.84;5028854;28;20424;-63
2023/12/09 09:29:42;;;;;;;0.80;0.80;;;;;;;10.29;100.00;99753.13;5015340;28;20037;-63
2023/12/09 09:32:07;;;;;;;0.70;0.70;;;;;;;10.35;100.00;99758.19;5018192;28;20132;-63
2023/12/09 09:34:33;;;;;;;0.75;0.75;;;;;;;10.38;100.00;99751.88;5012762;28;20165;-63
2023/12/09 09:36:58;;;;;;;0.70;0.70;;;;;;;10.41;100.00;99757.97;5017565;28;20017;-64
2023/12/09 09:39:24;;;;;;;0.70;0.70;;;;;;;10.41;100.00;99752.66;5015178;28;20030;-64
2023/12/09 09:42:31;;;;;;;0.70;0.70;;;;;;;10.47;100.00;99752.44;5017066;28;20035;-63
2023/12/09 09:45:22;;;;;;;0.73;0.73;;;;;;;10.56;100.00;99746.78;5005475;28;20120;-64
2023/12/09 09:47:49;;;;;;;0.68;0.68;;;;;;;10.55;100.00;99734.41;5014032;28;20056;-63
2023/12/09 09:50:25;;;;;;;0.70;0.70;;;;;;;10.53;100.00;99743.38;5013519;28;20108;-63
2023/12/09 09:52:52;;;;;;;0.80;0.80;;;;;;;10.52;100.00;99734.53;5015565;28;20029;-63
2023/12/09 09:55:20;;;;;;;0.77;0.77;;;;;;;10.51;100.00;99719.50;5013542;28;20095;-64
2023/12/09 09:57:48;;;;;;;0.80;0.80;;;;;;;10.43;100.00;99708.28;5014620;28;20037;-63
2023/12/09 10:00:15;;;;;;;0.70;0.70;;;;;;;10.43;100.00;99707.41;5015371;28;20349;-64
2023/12/09 10:02:49;;;;;;;0.80;0.80;;;;;;;10.48;100.00;99716.94;5015074;28;20033;-63
2023/12/09 10:05:16;;;;;;;0.90;0.90;;;;;;;10.49;100.00;99716.00;5014413;28;21575;-64
2023/12/09 10:07:42;;;;;;;0.80;0.80;;;;;;;10.50;100.00;99714.22;5013870;28;20067;-64
2023/12/09 10:10:09;;;;;;;0.80;0.80;;;;;;;10.51;100.00;99690.25;5014691;28;20037;-64
2023/12/09 10:12:35;;;;;;;0.77;0.77;;;;;;;10.56;100.00;99695.38;5018339;28;20154;-63
2023/12/09 10:15:01;;;;;;;0.70;0.70;;;;;;;10.58;100.00;99678.44;5026460;28;20103;-63
2023/12/09 10:17:27;;;;;;;0.75;0.75;;;;;;;10.55;100.00;99667.06;5024514;28;20488;-63
2023/12/09 10:19:56;;;;;;;0.70;0.70;;;;;;;10.52;100.00;99662.75;5021950;28;20053;-63
2023/12/09 10:22:24;;;;;;;0.77;0.77;;;;;;;10.45;100.00;99653.25;5014140;28;20033;-63
2023/12/09 10:24:50;;;;;;;0.73;0.73;;;;;;;10.40;100.00;99649.91;5031852;28;20111;-63
2023/12/09 10:27:20;;;;;;;0.70;0.70;;;;;;;10.40;100.00;99649.91;5032495;28;20021;-63
2023/12/09 10:29:45;;;;;;;0.70;0.70;;;;;;;10.41;100.00;99651.63;5025212;28;20052;-63
2023/12/09 10:32:12;;;;;;;0.70;0.70;;;;;;;10.40;100.00;99649.91;5032345;28;20065;-63
2023/12/09 10:34:39;;;;;;;0.80;0.80;;;;;;;10.39;100.00;99644.63;5029396;28;20052;-63
2023/12/09 10:37:07;;;;;;;0.85;0.85;;;;;;;10.42;100.00;99642.75;5024515;28;20048;-63
2023/12/09 10:39:33;;;;;;;0.80;0.80;;;;;;;10.36;100.00;99636.78;5030535;28;20173;-63
2023/12/09 10:41:59;;;;;;;0.70;0.70;;;;;;;10.35;100.00;99625.28;5031947;28;20048;-63
2023/12/09 10:44:24;;;;;;;0.70;0.70;;;;;;;10.38;100.00;99614.53;5029234;28;20113;-63
2023/12/09 10:46:50;;;;;;;0.70;0.70;;;;;;;10.40;100.00;99610.03;5027856;28;20029;-63
2023/12/09 10:49:15;;;;;;;0.70;0.70;;;;;;;10.44;100.00;99593.00;5031953;28;20496;-63
2023/12/09 10:51:41;;;;;;;0.80;0.80;;;;;;;10.47;100.00;99587.59;5032144;28;20040;-63
2023/12/09 10:54:06;;;;;;;0.70;0.70;;;;;;;10.51;100.00;99575.03;5026352;28;20033;-63
2023/12/09 10:56:33;;;;;;;0.80;0.80;;;;;;;10.50;100.00;99560.00;5012770;28;20026;-63
2023/12/09 10:59:00;;;;;;;0.70;0.70;;;;;;;10.42;100.00;99549.69;5015058;28;20385;-63
2023/12/09 11:01:28;;;;;;;0.70;0.70;;;;;;;10.40;100.00;99538.25;5026531;28;20476;-63
2023/12/09 11:03:53;;;;;;;0.88;0.88;;;;;;;10.39;100.00;99522.34;5031234;28;20104;-63
2023/12/09 11:06:21;;;;;;;0.80;0.80;;;;;;;10.34;100.00;99517.22;5027457;28;20595;-63
2023/12/09 11:08:47;;;;;;;0.80;0.80;;;;;;;10.41;100.00;99513.38;5031064;28;20025;-63
2023/12/09 11:11:12;;;;;;;0.68;0.68;;;;;;;10.51;100.00;99506.75;5031062;28;20443;-63
2023/12/09 11:13:38;;;;;;;0.70;0.70;;;;;;;10.52;100.00;99495.22;5030730;28;20042;-63
2023/12/09 11:16:08;;;;;;;0.60;0.60;;;;;;;10.48;100.00;99468.78;5021431;28;20033;-63
2023/12/09 11:18:33;;;;;;;0.80;0.80;;;;;;;10.58;100.00;99452.41;5024009;28;20090;-64
2023/12/09 11:21:01;;;;;;;0.80;0.80;;;;;;;10.67;100.00;99447.63;5031383;28;20032;-64
2023/12/09 11:23:27;;;;;;;0.80;0.80;;;;;;;10.82;100.00;99444.31;5026488;28;20029;-64
2023/12/09 11:25:52;;;;;;;0.80;0.80;;;;;;;11.03;100.00;99448.72;4994556;28;20037;-63